createdAt,value
2019-02-18T00:01:25.649Z,79.94
2019-02-18T00:04:32.215Z,79.62
2019-02-18T00:07:38.772Z,79.34
2019-02-18T00:10:45.554Z,81.16
2019-02-18T00:13:52.578Z,80.73
2019-02-18T00:16:59.408Z,80.90
2019-02-18T00:20:06.098Z,81.46
2019-02-18T00:23:12.497Z,81.68
2019-02-18T00:26:19.112Z,81.28
2019-02-18T00:29:25.390Z,81.92
2019-02-18T00:32:31.612Z,82.15
2019-02-18T00:35:38.105Z,82.49
2019-02-18T00:38:44.842Z,82.20
2019-02-18T00:41:51.567Z,83.12
2019-02-18T00:44:57.972Z,83.02
2019-02-18T00:48:04.235Z,83.20
2019-02-18T00:51:11.209Z,82.81
2019-02-18T00:54:17.755Z,82.93
2019-02-18T00:57:24.252Z,83.73
2019-02-18T01:00:31.228Z,83.40
2019-02-18T01:03:37.510Z,84.42
2019-02-18T01:06:43.844Z,83.70
2019-02-18T01:09:50.357Z,84.44
2019-02-18T01:12:57.134Z,84.49
2019-02-18T01:16:03.468Z,84.24
2019-02-18T01:19:09.961Z,84.74
2019-02-18T01:22:16.260Z,83.66
2019-02-18T01:25:22.960Z,83.98
2019-02-18T01:28:29.686Z,84.00
2019-02-18T01:31:37.075Z,84.19
2019-02-18T01:34:43.420Z,83.79
2019-02-18T01:37:49.829Z,83.80
2019-02-18T01:40:56.509Z,83.31
2019-02-18T01:44:03.022Z,84.16
2019-02-18T01:47:09.735Z,83.52
2019-02-18T01:50:17.020Z,83.59
2019-02-18T01:53:23.759Z,83.59
2019-02-18T01:56:31.302Z,83.40
2019-02-18T01:59:38.423Z,83.37
2019-02-18T02:02:45.579Z,84.35
2019-02-18T02:05:52.052Z,84.73
2019-02-18T02:08:59.371Z,83.96
2019-02-18T02:12:07.804Z,83.75
2019-02-18T02:15:20.366Z,83.32
2019-02-18T02:18:27.129Z,84.78
2019-02-18T02:21:34.927Z,83.72
2019-02-18T02:24:42.026Z,84.07
2019-02-18T02:27:48.505Z,84.05
2019-02-18T02:30:55.109Z,83.68
2019-02-18T02:34:01.788Z,83.37
2019-02-18T02:37:08.399Z,84.83
2019-02-18T02:40:14.967Z,84.24
2019-02-18T02:43:21.631Z,84.49
2019-02-18T02:46:28.381Z,84.91
2019-02-18T02:49:35.208Z,84.93
2019-02-18T02:52:41.698Z,84.30
2019-02-18T02:55:48.919Z,84.65
2019-02-18T02:58:55.606Z,85.02
2019-02-18T03:02:02.133Z,85.10
2019-02-18T03:05:09.363Z,84.86
2019-02-18T03:08:20.305Z,84.22
2019-02-18T03:11:23.943Z,85.24
2019-02-18T03:14:30.436Z,84.43
2019-02-18T03:17:36.716Z,84.28
2019-02-18T03:20:42.988Z,84.60
2019-02-18T03:23:49.839Z,84.14
2019-02-18T03:26:56.315Z,84.21
2019-02-18T03:30:55.537Z,84.59
2019-02-18T03:34:24.108Z,84.15
2019-02-18T03:37:30.647Z,84.21
2019-02-18T03:40:38.498Z,84.22
2019-02-18T03:43:45.280Z,85.23
2019-02-18T03:46:51.988Z,84.67
2019-02-18T03:49:58.574Z,84.32
2019-02-18T03:53:05.419Z,84.42
2019-02-18T03:56:12.303Z,84.93
2019-02-18T03:59:18.752Z,85.12
2019-02-18T04:02:25.330Z,84.59
2019-02-18T04:05:32.014Z,84.36
2019-02-18T04:08:42.983Z,85.11
2019-02-18T04:11:46.878Z,85.22
2019-02-18T04:14:53.486Z,85.21
2019-02-18T04:18:00.533Z,84.82
2019-02-18T04:21:07.009Z,84.53
2019-02-18T04:24:13.662Z,84.39
2019-02-18T04:27:19.958Z,84.86
2019-02-18T04:30:26.451Z,85.38
2019-02-18T04:33:32.848Z,84.40
2019-02-18T04:36:39.513Z,84.34
2019-02-18T04:39:46.127Z,84.35
2019-02-18T04:42:52.916Z,84.37
2019-02-18T04:45:59.410Z,84.52
2019-02-18T04:49:06.014Z,84.93
2019-02-18T04:52:13.340Z,84.75
2019-02-18T04:55:19.884Z,84.31
2019-02-18T04:58:26.573Z,83.88
2019-02-18T05:01:33.628Z,83.97
2019-02-18T05:04:41.649Z,84.20
2019-02-18T05:07:48.051Z,84.27
2019-02-18T05:10:54.340Z,84.30
2019-02-18T05:14:01.268Z,84.77
2019-02-18T05:17:07.812Z,84.76
2019-02-18T05:20:15.425Z,85.55
2019-02-18T05:23:22.020Z,86.61
2019-02-18T05:26:28.675Z,85.39
2019-02-18T05:29:34.869Z,85.20
2019-02-18T05:32:41.509Z,85.34
2019-02-18T05:35:49.082Z,84.88
2019-02-18T05:38:56.432Z,84.57
2019-02-18T05:42:02.995Z,84.18
2019-02-18T05:45:09.511Z,85.00
2019-02-18T05:48:16.233Z,85.64
2019-02-18T05:51:22.790Z,84.38
2019-02-18T05:54:29.492Z,85.08
2019-02-18T05:57:36.414Z,85.52
2019-02-18T06:00:42.940Z,85.27
2019-02-18T06:03:49.389Z,85.06
2019-02-18T06:06:56.099Z,85.56
2019-02-18T06:10:02.748Z,85.37
2019-02-18T06:13:09.349Z,84.99
2019-02-18T06:16:15.837Z,85.92
2019-02-18T06:19:22.147Z,86.62
2019-02-18T06:22:28.550Z,86.02
2019-02-18T06:25:35.002Z,85.45
2019-02-18T06:28:41.750Z,85.45
2019-02-18T06:31:49.195Z,85.73
2019-02-18T06:34:55.834Z,85.25
2019-02-18T06:38:02.376Z,85.39
2019-02-18T06:41:09.227Z,85.55
2019-02-18T06:44:16.729Z,85.68
2019-02-18T06:47:26.021Z,86.19
2019-02-18T06:50:32.725Z,87.27
2019-02-18T06:53:39.225Z,85.96
2019-02-18T06:56:55.936Z,84.63
2019-02-18T07:00:10.175Z,84.55
2019-02-18T07:03:25.339Z,84.89
2019-02-18T07:06:50.652Z,85.21
2019-02-18T07:10:19.073Z,85.27
2019-02-18T07:13:26.254Z,85.32
2019-02-18T07:16:32.822Z,85.44
2019-02-18T07:19:40.425Z,85.39
2019-02-18T07:22:47.359Z,85.15
2019-02-18T07:25:54.066Z,84.26
2019-02-18T07:29:00.558Z,84.21
2019-02-18T07:32:07.100Z,83.63
2019-02-18T07:35:13.548Z,83.67
2019-02-18T07:38:20.259Z,83.75
2019-02-18T07:41:27.429Z,83.88
2019-02-18T07:44:34.846Z,83.60
2019-02-18T07:47:42.395Z,83.31
2019-02-18T07:50:48.920Z,83.53
2019-02-18T07:53:55.394Z,82.98
2019-02-18T07:57:02.043Z,82.72
2019-02-18T08:00:12.950Z,82.40
2019-02-18T08:03:19.898Z,82.09
2019-02-18T08:06:26.429Z,81.51
2019-02-18T08:09:32.874Z,80.48
2019-02-18T08:12:40.139Z,79.53
2019-02-18T08:15:47.552Z,77.48
2019-02-18T08:18:54.159Z,76.87
2019-02-18T08:22:00.603Z,76.72
2019-02-18T08:25:07.863Z,75.53
2019-02-18T08:28:14.759Z,74.76
2019-02-18T08:31:21.366Z,74.05
2019-02-18T08:34:27.996Z,73.64
2019-02-18T08:37:34.836Z,73.77
2019-02-18T08:40:41.437Z,73.01
2019-02-18T08:43:47.964Z,72.18
2019-02-18T08:46:54.418Z,71.97
2019-02-18T08:50:01.088Z,71.70
2019-02-18T08:53:08.012Z,71.37
2019-02-18T08:56:14.701Z,70.82
2019-02-18T08:59:21.648Z,70.43
2019-02-18T09:02:27.993Z,69.32
2019-02-18T09:05:34.643Z,68.90
2019-02-18T09:08:40.984Z,69.31
2019-02-18T09:11:47.324Z,68.44
2019-02-18T09:14:54.183Z,68.43
2019-02-18T09:18:03.194Z,67.52
2019-02-18T09:21:10.403Z,67.29
2019-02-18T09:24:25.318Z,66.75
2019-02-18T09:27:32.470Z,65.93
2019-02-18T09:30:41.877Z,64.58
2019-02-18T09:33:49.237Z,60.91
2019-02-18T09:36:57.355Z,61.95
2019-02-18T09:40:03.831Z,60.86
2019-02-18T09:43:11.075Z,60.40
2019-02-18T09:46:17.704Z,60.89
2019-02-18T09:49:24.685Z,60.17
2019-02-18T09:52:31.408Z,60.48
2019-02-18T09:55:37.937Z,54.72
2019-02-18T09:58:44.518Z,56.99
2019-02-18T10:01:51.433Z,55.44
2019-02-18T10:04:57.971Z,55.63
2019-02-18T10:08:04.856Z,52.53
2019-02-18T10:11:11.529Z,49.32
2019-02-18T10:14:18.340Z,49.80
2019-02-18T10:17:24.822Z,50.59
2019-02-18T10:20:31.582Z,52.16
2019-02-18T10:23:38.500Z,45.70
2019-02-18T10:26:45.130Z,44.07
2019-02-18T10:29:51.816Z,41.68
2019-02-18T10:32:58.495Z,45.57
2019-02-18T10:36:06.454Z,41.66
2019-02-18T10:39:13.306Z,40.26
2019-02-18T10:42:19.741Z,41.99
2019-02-18T10:45:26.262Z,38.96
2019-02-18T10:48:34.399Z,37.16
2019-02-18T10:51:43.494Z,36.00
2019-02-18T10:54:50.506Z,43.30
2019-02-18T10:57:57.303Z,39.91
2019-02-18T11:01:04.287Z,38.31
2019-02-18T11:04:10.809Z,38.01
2019-02-18T11:07:17.780Z,37.38
2019-02-18T11:10:24.755Z,32.36
2019-02-18T11:13:31.796Z,35.73
2019-02-18T11:16:38.973Z,34.38
2019-02-18T11:19:46.760Z,32.67
2019-02-18T11:22:53.547Z,31.37
2019-02-18T11:26:00.385Z,31.38
2019-02-18T11:29:06.761Z,31.95
2019-02-18T11:32:13.764Z,31.74
2019-02-18T11:35:20.396Z,30.76
2019-02-18T11:38:26.931Z,30.33
2019-02-18T11:41:34.959Z,30.08
2019-02-18T11:44:41.642Z,29.55
2019-02-18T11:47:48.082Z,28.49
2019-02-18T11:50:54.873Z,30.20
2019-02-18T11:54:01.805Z,30.39
2019-02-18T11:57:08.282Z,31.68
2019-02-18T12:00:18.114Z,30.94
2019-02-18T12:03:24.649Z,32.01
2019-02-18T12:06:31.790Z,30.95
2019-02-18T12:09:38.948Z,29.32
2019-02-18T12:12:49.847Z,31.11
2019-02-18T12:15:58.192Z,30.73
2019-02-18T12:19:06.075Z,29.62
2019-02-18T12:22:13.446Z,29.86
2019-02-18T12:25:21.222Z,30.06
2019-02-18T12:28:28.740Z,29.88
2019-02-18T12:31:36.488Z,28.75
2019-02-18T12:34:43.166Z,30.34
2019-02-18T12:37:55.378Z,28.70
2019-02-18T12:40:58.129Z,29.66
2019-02-18T12:44:04.823Z,30.70
2019-02-18T12:47:11.220Z,30.91
2019-02-18T12:50:18.101Z,31.03
2019-02-18T12:53:24.587Z,29.78
2019-02-18T12:56:32.181Z,30.25
2019-02-18T12:59:38.975Z,31.80
2019-02-18T13:02:45.868Z,31.61
2019-02-18T13:05:52.685Z,31.62
2019-02-18T13:08:59.653Z,30.16
2019-02-18T13:12:07.068Z,29.97
2019-02-18T13:15:13.723Z,32.24
2019-02-18T13:18:20.642Z,31.06
2019-02-18T13:21:28.303Z,31.83
2019-02-18T13:24:36.728Z,30.94
2019-02-18T13:27:44.823Z,32.39
2019-02-18T13:30:51.181Z,31.40
2019-02-18T13:33:57.935Z,32.20
2019-02-18T13:37:04.477Z,31.64
2019-02-18T13:40:11.587Z,32.20
2019-02-18T13:43:18.099Z,31.73
2019-02-18T13:46:24.288Z,32.39
2019-02-18T13:49:30.819Z,32.28
2019-02-18T13:52:37.888Z,32.05
2019-02-18T13:55:44.173Z,32.63
2019-02-18T13:58:50.744Z,33.76
2019-02-18T14:01:57.494Z,32.60
2019-02-18T14:05:04.124Z,32.55
2019-02-18T14:08:11.061Z,34.05
2019-02-18T14:11:17.715Z,34.03
2019-02-18T14:14:24.784Z,35.05
2019-02-18T14:17:31.505Z,35.27
2019-02-18T14:20:38.225Z,35.72
2019-02-18T14:23:44.813Z,35.28
2019-02-18T14:26:51.216Z,36.65
2019-02-18T14:29:58.109Z,36.62
2019-02-18T14:33:04.723Z,35.07
2019-02-18T14:36:12.905Z,35.33
2019-02-18T14:39:24.243Z,36.12
2019-02-18T14:42:30.810Z,36.90
2019-02-18T14:45:37.972Z,39.21
2019-02-18T14:48:44.988Z,36.54
2019-02-18T14:51:53.271Z,37.37
2019-02-18T14:54:59.845Z,37.49
2019-02-18T14:58:06.757Z,37.18
2019-02-18T15:01:13.455Z,38.54
2019-02-18T15:04:20.630Z,38.49
2019-02-18T15:07:27.482Z,37.49
2019-02-18T15:10:33.848Z,36.09
2019-02-18T15:13:40.408Z,37.07
2019-02-18T15:16:47.085Z,37.24
2019-02-18T15:19:53.429Z,36.42
2019-02-18T15:23:00.449Z,38.00
2019-02-18T15:26:07.643Z,37.51
2019-02-18T15:29:14.516Z,38.80
2019-02-18T15:32:21.196Z,39.56
2019-02-18T15:35:27.887Z,39.24
2019-02-18T15:38:34.430Z,39.66
2019-02-18T15:41:41.519Z,38.01
2019-02-18T15:44:49.265Z,39.56
2019-02-18T15:48:01.552Z,41.00
2019-02-18T15:51:04.007Z,43.12
2019-02-18T15:54:11.254Z,45.03
2019-02-18T15:57:19.864Z,45.43
2019-02-18T16:00:26.598Z,46.16
2019-02-18T16:03:33.185Z,47.82
2019-02-18T16:06:39.642Z,46.60
2019-02-18T16:09:48.103Z,48.23
2019-02-18T16:12:57.078Z,48.63
2019-02-18T16:16:03.700Z,49.79
2019-02-18T16:19:10.299Z,51.38
2019-02-18T16:22:16.962Z,51.59
2019-02-18T16:25:23.693Z,52.78
2019-02-18T16:28:30.165Z,54.11
2019-02-18T16:31:37.680Z,55.07
2019-02-18T16:34:44.647Z,55.92
2019-02-18T16:37:52.388Z,57.73
2019-02-18T16:40:59.742Z,58.96
2019-02-18T16:44:06.858Z,59.43
2019-02-18T16:47:13.623Z,60.39
2019-02-18T16:50:20.382Z,60.72
2019-02-18T16:53:27.086Z,62.71
2019-02-18T16:56:34.650Z,63.54
2019-02-18T16:59:41.437Z,63.03
2019-02-18T17:02:48.574Z,62.76
2019-02-18T17:05:55.250Z,63.72
2019-02-18T17:09:02.040Z,65.19
2019-02-18T17:12:11.571Z,64.43
2019-02-18T17:15:22.149Z,65.69
2019-02-18T17:18:28.507Z,65.58
2019-02-18T17:21:36.051Z,66.89
2019-02-18T17:24:42.888Z,67.91
2019-02-18T17:27:49.329Z,68.69
2019-02-18T17:30:56.271Z,68.03
2019-02-18T17:34:02.954Z,68.37
2019-02-18T17:37:09.848Z,69.26
2019-02-18T17:40:16.865Z,70.61
2019-02-18T17:43:23.609Z,70.16
2019-02-18T17:46:30.017Z,71.38
2019-02-18T17:49:37.092Z,70.96
2019-02-18T17:52:43.556Z,72.34
2019-02-18T17:55:50.874Z,72.16
2019-02-18T17:58:58.364Z,72.25
2019-02-18T18:02:04.827Z,72.90
2019-02-18T18:05:12.394Z,72.91
2019-02-18T18:08:19.229Z,74.13
2019-02-18T18:11:25.766Z,74.23
2019-02-18T18:14:32.289Z,73.53
2019-02-18T18:17:39.214Z,74.42
2019-02-18T18:20:46.408Z,74.20
2019-02-18T18:23:52.793Z,74.55
2019-02-18T18:26:59.532Z,74.58
2019-02-18T18:30:06.008Z,76.04
2019-02-18T18:33:12.332Z,74.67
2019-02-18T18:36:19.069Z,76.08
2019-02-18T18:39:25.439Z,76.63
2019-02-18T18:42:32.169Z,74.86
2019-02-18T18:45:38.758Z,76.73
2019-02-18T18:48:45.731Z,77.59
2019-02-18T18:51:53.101Z,75.83
2019-02-18T18:55:00.148Z,76.70
2019-02-18T18:58:06.809Z,76.62
2019-02-18T19:01:14.742Z,76.67
2019-02-18T19:04:21.384Z,76.53
2019-02-18T19:07:27.921Z,76.70
2019-02-18T19:10:35.063Z,76.59
2019-02-18T19:13:45.161Z,77.44
2019-02-18T19:16:51.978Z,78.02
2019-02-18T19:19:59.278Z,77.87
2019-02-18T19:23:06.578Z,78.71
2019-02-18T19:26:13.325Z,77.67
2019-02-18T19:29:21.139Z,78.34
2019-02-18T19:32:27.670Z,77.92
2019-02-18T19:35:35.732Z,78.34
2019-02-18T19:38:43.261Z,78.75
2019-02-18T19:41:51.552Z,79.42
2019-02-18T19:44:58.860Z,78.95
2019-02-18T19:48:06.114Z,79.49
2019-02-18T19:51:13.195Z,79.85
2019-02-18T19:54:20.180Z,80.27
2019-02-18T19:57:28.004Z,80.85
2019-02-18T20:00:34.989Z,79.68
2019-02-18T20:03:41.618Z,80.74
2019-02-18T20:06:47.970Z,80.94
2019-02-18T20:09:54.513Z,80.86
2019-02-18T20:13:01.438Z,80.18
2019-02-18T20:16:09.296Z,79.94
2019-02-18T20:19:18.897Z,81.54
2019-02-18T20:22:25.733Z,82.01
2019-02-18T20:25:32.927Z,82.17
2019-02-18T20:28:39.275Z,80.80
2019-02-18T20:31:47.222Z,81.19
2019-02-18T20:34:53.915Z,81.49
2019-02-18T20:38:00.757Z,81.42
2019-02-18T20:41:07.312Z,80.87
2019-02-18T20:44:14.036Z,80.91
2019-02-18T20:47:21.522Z,82.27
2019-02-18T20:50:29.345Z,82.36
2019-02-18T20:53:36.589Z,81.90
2019-02-18T20:56:43.104Z,81.09
2019-02-18T20:59:49.924Z,81.98
2019-02-18T21:02:57.003Z,82.11
2019-02-18T21:06:03.954Z,81.77
2019-02-18T21:09:10.736Z,83.06
2019-02-18T21:12:20.890Z,82.65
2019-02-18T21:15:28.107Z,82.72
2019-02-18T21:18:34.727Z,82.51
2019-02-18T21:21:42.048Z,82.22
2019-02-18T21:24:49.176Z,82.05
2019-02-18T21:27:55.686Z,81.97
2019-02-18T21:31:03.790Z,82.08
2019-02-18T21:34:10.729Z,82.50
2019-02-18T21:37:17.020Z,82.66
2019-02-18T21:40:23.664Z,82.49
2019-02-18T21:43:30.025Z,82.74
2019-02-18T21:46:37.227Z,82.92
2019-02-18T21:49:43.666Z,83.29
2019-02-18T21:52:50.425Z,82.86
2019-02-18T21:55:57.035Z,82.86
2019-02-18T21:59:03.714Z,82.58
2019-02-18T22:02:10.402Z,82.62
2019-02-18T22:05:17.467Z,82.82
2019-02-18T22:08:24.463Z,83.01
2019-02-18T22:11:31.022Z,83.91
2019-02-18T22:14:37.841Z,83.31
2019-02-18T22:17:44.716Z,83.04
2019-02-18T22:20:51.743Z,82.99
2019-02-18T22:23:58.358Z,83.22
2019-02-18T22:27:05.299Z,83.19
2019-02-18T22:30:12.735Z,84.97
2019-02-18T22:33:19.368Z,83.11
2019-02-18T22:36:26.294Z,82.78
2019-02-18T22:39:33.005Z,81.74
2019-02-18T22:42:39.731Z,81.27
2019-02-18T22:45:46.757Z,81.34
2019-02-18T22:48:53.599Z,80.55
2019-02-18T22:52:00.762Z,80.99
2019-02-18T22:55:10.534Z,80.02
2019-02-18T22:58:17.317Z,80.30
2019-02-18T23:01:25.278Z,79.48
2019-02-18T23:04:32.353Z,79.02
2019-02-18T23:07:39.860Z,78.33
2019-02-18T23:10:46.499Z,78.59
2019-02-18T23:13:53.684Z,78.70
2019-02-18T23:17:00.326Z,77.86
2019-02-18T23:20:07.085Z,77.43
2019-02-18T23:23:14.269Z,76.97
2019-02-18T23:26:21.050Z,76.87
2019-02-18T23:29:27.465Z,76.55
2019-02-18T23:32:34.067Z,76.55
2019-02-18T23:35:40.845Z,76.73
2019-02-18T23:38:47.690Z,76.40
2019-02-18T23:41:54.459Z,76.27
2019-02-18T23:45:01.575Z,76.46
2019-02-18T23:48:07.906Z,76.28
2019-02-18T23:51:15.537Z,74.76
2019-02-18T23:54:22.039Z,73.86
2019-02-18T23:57:28.908Z,73.27
